sensor_id;sensor_type;location;lat;lon;timestamp;P1;durP1;ratioP1;P2;durP2;ratioP2
51489;SDS011;57752;53.574;9.736;2023-02-08T00:03:24;48.38;;;22.92;;
51489;SDS011;57752;53.574;9.736;2023-02-08T00:08:24;53.45;;;21.73;;
51489;SDS011;57752;53.574;9.736;2023-02-08T00:13:24;53.10;;;23.05;;
51489;SDS011;57752;53.574;9.736;2023-02-08T00:18:25;44.67;;;21.17;;
51489;SDS011;57752;53.574;9.736;2023-02-08T00:23:25;52.22;;;23.52;;
51489;SDS011;57752;53.574;9.736;2023-02-08T00:28:25;45.83;;;21.38;;
51489;SDS011;57752;53.574;9.736;2023-02-08T00:33:25;48.50;;;20.92;;
51489;SDS011;57752;53.574;9.736;2023-02-08T00:38:25;44.30;;;20.42;;
51489;SDS011;57752;53.574;9.736;2023-02-08T00:43:26;41.70;;;19.95;;
51489;SDS011;57752;53.574;9.736;2023-02-08T00:48:26;50.58;;;20.70;;
51489;SDS011;57752;53.574;9.736;2023-02-08T00:53:27;48.40;;;23.50;;
51489;SDS011;57752;53.574;9.736;2023-02-08T00:58:27;57.47;;;25.10;;
51489;SDS011;57752;53.574;9.736;2023-02-08T01:03:27;48.38;;;23.95;;
51489;SDS011;57752;53.574;9.736;2023-02-08T01:08:27;47.38;;;21.35;;
51489;SDS011;57752;53.574;9.736;2023-02-08T01:13:27;46.00;;;21.27;;
51489;SDS011;57752;53.574;9.736;2023-02-08T01:18:28;51.45;;;22.98;;
51489;SDS011;57752;53.574;9.736;2023-02-08T01:23:28;47.88;;;22.13;;
51489;SDS011;57752;53.574;9.736;2023-02-08T01:28:28;46.70;;;22.05;;
51489;SDS011;57752;53.574;9.736;2023-02-08T01:33:29;47.72;;;22.23;;
51489;SDS011;57752;53.574;9.736;2023-02-08T01:38:29;44.45;;;20.60;;
51489;SDS011;57752;53.574;9.736;2023-02-08T01:43:31;41.75;;;20.00;;
51489;SDS011;57752;53.574;9.736;2023-02-08T01:48:35;49.70;;;20.98;;
51489;SDS011;57752;53.574;9.736;2023-02-08T01:53:37;52.70;;;20.20;;
51489;SDS011;57752;53.574;9.736;2023-02-08T01:58:39;44.45;;;21.98;;
51489;SDS011;57752;53.574;9.736;2023-02-08T02:03:41;46.72;;;23.13;;
51489;SDS011;57752;53.574;9.736;2023-02-08T02:08:43;43.90;;;19.92;;
51489;SDS011;57752;53.574;9.736;2023-02-08T02:13:46;41.10;;;18.55;;
51489;SDS011;57752;53.574;9.736;2023-02-08T02:18:47;43.72;;;20.25;;
51489;SDS011;57752;53.574;9.736;2023-02-08T02:34:09;41.17;;;18.65;;
51489;SDS011;57752;53.574;9.736;2023-02-08T02:39:19;44.78;;;19.63;;
51489;SDS011;57752;53.574;9.736;2023-02-08T02:44:23;44.10;;;19.83;;
51489;SDS011;57752;53.574;9.736;2023-02-08T02:49:35;45.08;;;20.10;;
51489;SDS011;57752;53.574;9.736;2023-02-08T02:59:36;46.33;;;20.63;;
51489;SDS011;57752;53.574;9.736;2023-02-08T03:14:56;37.42;;;17.33;;
51489;SDS011;57752;53.574;9.736;2023-02-08T03:20:07;41.45;;;18.65;;
51489;SDS011;57752;53.574;9.736;2023-02-08T03:40:17;46.17;;;20.42;;
51489;SDS011;57752;53.574;9.736;2023-02-08T03:45:21;45.63;;;19.67;;
51489;SDS011;57752;53.574;9.736;2023-02-08T03:50:21;47.78;;;21.67;;
51489;SDS011;57752;53.574;9.736;2023-02-08T03:55:24;48.22;;;20.25;;
51489;SDS011;57752;53.574;9.736;2023-02-08T04:00:24;56.20;;;21.33;;
51489;SDS011;57752;53.574;9.736;2023-02-08T04:05:25;47.88;;;21.27;;
51489;SDS011;57752;53.574;9.736;2023-02-08T04:10:26;49.00;;;20.73;;
51489;SDS011;57752;53.574;9.736;2023-02-08T04:15:26;55.63;;;22.25;;
51489;SDS011;57752;53.574;9.736;2023-02-08T04:20:26;55.15;;;25.05;;
51489;SDS011;57752;53.574;9.736;2023-02-08T04:25:26;48.45;;;22.42;;
51489;SDS011;57752;53.574;9.736;2023-02-08T04:30:27;47.70;;;23.00;;
51489;SDS011;57752;53.574;9.736;2023-02-08T04:35:27;49.17;;;21.02;;
51489;SDS011;57752;53.574;9.736;2023-02-08T04:40:27;58.20;;;25.13;;
51489;SDS011;57752;53.574;9.736;2023-02-08T04:45:27;49.05;;;23.38;;
51489;SDS011;57752;53.574;9.736;2023-02-08T04:50:30;70.55;;;25.48;;
51489;SDS011;57752;53.574;9.736;2023-02-08T04:55:31;64.60;;;27.20;;
51489;SDS011;57752;53.574;9.736;2023-02-08T05:00:31;58.00;;;25.13;;
51489;SDS011;57752;53.574;9.736;2023-02-08T05:05:31;63.28;;;27.08;;
51489;SDS011;57752;53.574;9.736;2023-02-08T05:10:31;69.65;;;27.50;;
51489;SDS011;57752;53.574;9.736;2023-02-08T05:15:32;73.93;;;27.23;;
51489;SDS011;57752;53.574;9.736;2023-02-08T05:20:32;70.50;;;29.30;;
51489;SDS011;57752;53.574;9.736;2023-02-08T05:25:32;76.75;;;31.65;;
51489;SDS011;57752;53.574;9.736;2023-02-08T05:30:32;71.05;;;29.73;;
51489;SDS011;57752;53.574;9.736;2023-02-08T05:35:32;68.78;;;29.05;;
51489;SDS011;57752;53.574;9.736;2023-02-08T05:40:33;80.22;;;33.13;;
51489;SDS011;57752;53.574;9.736;2023-02-08T05:45:33;77.88;;;31.02;;
51489;SDS011;57752;53.574;9.736;2023-02-08T05:50:33;78.22;;;30.80;;
51489;SDS011;57752;53.574;9.736;2023-02-08T05:55:33;80.85;;;32.60;;
51489;SDS011;57752;53.574;9.736;2023-02-08T06:00:33;78.82;;;33.72;;
51489;SDS011;57752;53.574;9.736;2023-02-08T06:05:33;95.68;;;34.08;;
51489;SDS011;57752;53.574;9.736;2023-02-08T06:10:34;83.95;;;32.03;;
51489;SDS011;57752;53.574;9.736;2023-02-08T06:15:34;74.43;;;31.10;;
51489;SDS011;57752;53.574;9.736;2023-02-08T06:20:34;85.38;;;34.08;;
51489;SDS011;57752;53.574;9.736;2023-02-08T06:25:34;72.72;;;29.98;;
51489;SDS011;57752;53.574;9.736;2023-02-08T06:30:37;68.32;;;30.27;;
51489;SDS011;57752;53.574;9.736;2023-02-08T06:35:37;80.72;;;32.47;;
51489;SDS011;57752;53.574;9.736;2023-02-08T06:40:37;64.65;;;28.75;;
51489;SDS011;57752;53.574;9.736;2023-02-08T06:45:38;67.95;;;28.48;;
51489;SDS011;57752;53.574;9.736;2023-02-08T06:50:38;66.10;;;27.90;;
51489;SDS011;57752;53.574;9.736;2023-02-08T06:55:38;64.85;;;27.48;;
51489;SDS011;57752;53.574;9.736;2023-02-08T07:00:38;70.20;;;28.08;;
51489;SDS011;57752;53.574;9.736;2023-02-08T07:05:39;64.80;;;28.38;;
51489;SDS011;57752;53.574;9.736;2023-02-08T07:10:39;70.15;;;28.77;;
51489;SDS011;57752;53.574;9.736;2023-02-08T07:15:39;81.25;;;30.15;;
51489;SDS011;57752;53.574;9.736;2023-02-08T07:20:39;91.07;;;31.20;;
51489;SDS011;57752;53.574;9.736;2023-02-08T07:25:39;94.82;;;33.55;;
51489;SDS011;57752;53.574;9.736;2023-02-08T07:30:40;88.65;;;36.92;;
51489;SDS011;57752;53.574;9.736;2023-02-08T07:35:40;81.03;;;31.60;;
51489;SDS011;57752;53.574;9.736;2023-02-08T07:40:40;73.72;;;32.10;;
51489;SDS011;57752;53.574;9.736;2023-02-08T07:45:40;81.25;;;30.45;;
51489;SDS011;57752;53.574;9.736;2023-02-08T07:50:40;80.63;;;32.35;;
51489;SDS011;57752;53.574;9.736;2023-02-08T07:55:40;79.57;;;31.10;;
51489;SDS011;57752;53.574;9.736;2023-02-08T08:00:40;75.50;;;31.58;;
51489;SDS011;57752;53.574;9.736;2023-02-08T08:05:41;76.35;;;29.33;;
51489;SDS011;57752;53.574;9.736;2023-02-08T08:10:41;70.20;;;30.77;;
51489;SDS011;57752;53.574;9.736;2023-02-08T08:15:41;81.60;;;30.45;;
51489;SDS011;57752;53.574;9.736;2023-02-08T08:20:42;70.10;;;29.63;;
51489;SDS011;57752;53.574;9.736;2023-02-08T08:25:42;80.53;;;30.73;;
51489;SDS011;57752;53.574;9.736;2023-02-08T08:30:42;80.18;;;30.27;;
51489;SDS011;57752;53.574;9.736;2023-02-08T08:35:43;70.82;;;28.50;;
51489;SDS011;57752;53.574;9.736;2023-02-08T08:45:46;66.07;;;28.25;;
51489;SDS011;57752;53.574;9.736;2023-02-08T08:50:46;79.30;;;29.58;;
51489;SDS011;57752;53.574;9.736;2023-02-08T08:55:46;73.38;;;29.05;;
51489;SDS011;57752;53.574;9.736;2023-02-08T09:00:46;72.20;;;30.13;;
51489;SDS011;57752;53.574;9.736;2023-02-08T09:05:47;86.88;;;31.20;;
51489;SDS011;57752;53.574;9.736;2023-02-08T09:10:47;70.38;;;26.92;;
51489;SDS011;57752;53.574;9.736;2023-02-08T09:15:47;72.85;;;29.15;;
51489;SDS011;57752;53.574;9.736;2023-02-08T09:20:48;66.53;;;27.95;;
51489;SDS011;57752;53.574;9.736;2023-02-08T09:25:48;65.10;;;26.83;;
51489;SDS011;57752;53.574;9.736;2023-02-08T09:30:48;66.97;;;27.33;;
51489;SDS011;57752;53.574;9.736;2023-02-08T09:35:48;71.43;;;25.67;;
51489;SDS011;57752;53.574;9.736;2023-02-08T09:40:52;65.60;;;26.30;;
51489;SDS011;57752;53.574;9.736;2023-02-08T09:45:58;59.85;;;27.08;;
51489;SDS011;57752;53.574;9.736;2023-02-08T09:51:01;64.90;;;28.27;;
51489;SDS011;57752;53.574;9.736;2023-02-08T09:56:03;65.97;;;28.45;;
51489;SDS011;57752;53.574;9.736;2023-02-08T10:01:05;63.15;;;26.90;;
51489;SDS011;57752;53.574;9.736;2023-02-08T10:06:06;70.22;;;26.90;;
51489;SDS011;57752;53.574;9.736;2023-02-08T10:16:27;58.88;;;25.42;;
51489;SDS011;57752;53.574;9.736;2023-02-08T10:21:35;56.75;;;24.63;;
51489;SDS011;57752;53.574;9.736;2023-02-08T10:31:54;51.95;;;23.48;;
51489;SDS011;57752;53.574;9.736;2023-02-08T10:36:59;51.00;;;22.85;;
51489;SDS011;57752;53.574;9.736;2023-02-08T10:42:00;57.35;;;22.80;;
51489;SDS011;57752;53.574;9.736;2023-02-08T10:52:20;54.55;;;23.25;;
51489;SDS011;57752;53.574;9.736;2023-02-08T10:57:24;61.45;;;23.95;;
51489;SDS011;57752;53.574;9.736;2023-02-08T11:02:27;50.03;;;22.40;;
51489;SDS011;57752;53.574;9.736;2023-02-08T11:07:29;53.25;;;23.25;;
51489;SDS011;57752;53.574;9.736;2023-02-08T11:12:29;54.85;;;23.15;;
51489;SDS011;57752;53.574;9.736;2023-02-08T11:17:30;57.57;;;22.93;;
51489;SDS011;57752;53.574;9.736;2023-02-08T11:22:31;53.70;;;22.95;;
51489;SDS011;57752;53.574;9.736;2023-02-08T11:27:34;57.50;;;24.52;;
51489;SDS011;57752;53.574;9.736;2023-02-08T11:32:35;48.55;;;21.98;;
51489;SDS011;57752;53.574;9.736;2023-02-08T11:37:35;51.97;;;24.02;;
51489;SDS011;57752;53.574;9.736;2023-02-08T11:42:38;55.47;;;25.38;;
51489;SDS011;57752;53.574;9.736;2023-02-08T11:47:40;59.13;;;24.88;;
51489;SDS011;57752;53.574;9.736;2023-02-08T11:52:40;56.28;;;25.50;;
51489;SDS011;57752;53.574;9.736;2023-02-08T11:58:02;53.92;;;24.50;;
51489;SDS011;57752;53.574;9.736;2023-02-08T12:03:03;53.70;;;23.95;;
51489;SDS011;57752;53.574;9.736;2023-02-08T12:08:06;47.43;;;23.10;;
51489;SDS011;57752;53.574;9.736;2023-02-08T12:18:19;49.08;;;22.50;;
51489;SDS011;57752;53.574;9.736;2023-02-08T12:33:48;43.10;;;20.02;;
51489;SDS011;57752;53.574;9.736;2023-02-08T12:44:26;49.88;;;21.83;;
51489;SDS011;57752;53.574;9.736;2023-02-08T12:49:34;48.97;;;21.02;;
51489;SDS011;57752;53.574;9.736;2023-02-08T12:54:40;50.17;;;21.30;;
51489;SDS011;57752;53.574;9.736;2023-02-08T12:59:46;52.35;;;23.23;;
51489;SDS011;57752;53.574;9.736;2023-02-08T13:04:50;51.80;;;21.17;;
51489;SDS011;57752;53.574;9.736;2023-02-08T13:09:59;44.58;;;20.55;;
51489;SDS011;57752;53.574;9.736;2023-02-08T13:15:17;46.53;;;20.27;;
51489;SDS011;57752;53.574;9.736;2023-02-08T13:25:26;45.58;;;19.23;;
51489;SDS011;57752;53.574;9.736;2023-02-08T13:30:28;39.67;;;18.70;;
51489;SDS011;57752;53.574;9.736;2023-02-08T13:35:30;40.22;;;18.27;;
51489;SDS011;57752;53.574;9.736;2023-02-08T13:40:31;37.80;;;16.77;;
51489;SDS011;57752;53.574;9.736;2023-02-08T13:45:33;41.05;;;16.73;;
51489;SDS011;57752;53.574;9.736;2023-02-08T14:00:35;28.40;;;13.32;;
51489;SDS011;57752;53.574;9.736;2023-02-08T14:05:41;27.73;;;12.57;;
51489;SDS011;57752;53.574;9.736;2023-02-08T14:10:43;29.40;;;11.75;;
51489;SDS011;57752;53.574;9.736;2023-02-08T14:15:45;25.05;;;9.77;;
51489;SDS011;57752;53.574;9.736;2023-02-08T14:20:54;26.77;;;10.77;;
51489;SDS011;57752;53.574;9.736;2023-02-08T14:25:57;26.85;;;11.20;;
51489;SDS011;57752;53.574;9.736;2023-02-08T14:30:59;23.90;;;9.63;;
51489;SDS011;57752;53.574;9.736;2023-02-08T14:36:01;24.25;;;9.18;;
51489;SDS011;57752;53.574;9.736;2023-02-08T14:41:02;22.40;;;8.77;;
51489;SDS011;57752;53.574;9.736;2023-02-08T14:51:23;21.75;;;8.82;;
51489;SDS011;57752;53.574;9.736;2023-02-08T14:56:27;22.40;;;9.15;;
51489;SDS011;57752;53.574;9.736;2023-02-08T15:01:35;20.77;;;8.97;;
51489;SDS011;57752;53.574;9.736;2023-02-08T15:12:02;21.67;;;9.25;;
51489;SDS011;57752;53.574;9.736;2023-02-08T15:17:03;22.35;;;8.43;;
51489;SDS011;57752;53.574;9.736;2023-02-08T15:22:16;20.88;;;8.13;;
51489;SDS011;57752;53.574;9.736;2023-02-08T15:27:21;18.77;;;7.72;;
51489;SDS011;57752;53.574;9.736;2023-02-08T15:32:22;25.02;;;10.32;;
51489;SDS011;57752;53.574;9.736;2023-02-08T15:37:23;19.85;;;8.43;;
51489;SDS011;57752;53.574;9.736;2023-02-08T15:42:25;23.42;;;8.45;;
51489;SDS011;57752;53.574;9.736;2023-02-08T15:47:30;20.73;;;9.35;;
51489;SDS011;57752;53.574;9.736;2023-02-08T15:52:32;20.33;;;7.78;;
51489;SDS011;57752;53.574;9.736;2023-02-08T16:02:36;22.80;;;8.85;;
51489;SDS011;57752;53.574;9.736;2023-02-08T16:07:37;22.40;;;8.18;;
51489;SDS011;57752;53.574;9.736;2023-02-08T16:12:38;19.52;;;7.65;;
51489;SDS011;57752;53.574;9.736;2023-02-08T16:17:43;19.77;;;7.93;;
51489;SDS011;57752;53.574;9.736;2023-02-08T16:22:43;22.15;;;8.77;;
51489;SDS011;57752;53.574;9.736;2023-02-08T16:27:52;23.45;;;9.60;;
51489;SDS011;57752;53.574;9.736;2023-02-08T16:32:52;25.80;;;10.18;;
51489;SDS011;57752;53.574;9.736;2023-02-08T16:37:53;30.88;;;11.85;;
51489;SDS011;57752;53.574;9.736;2023-02-08T16:43:04;33.03;;;13.05;;
51489;SDS011;57752;53.574;9.736;2023-02-08T16:48:26;29.95;;;12.20;;
51489;SDS011;57752;53.574;9.736;2023-02-08T16:53:32;31.70;;;12.52;;
51489;SDS011;57752;53.574;9.736;2023-02-08T16:58:32;35.30;;;14.23;;
51489;SDS011;57752;53.574;9.736;2023-02-08T17:03:32;30.08;;;14.13;;
51489;SDS011;57752;53.574;9.736;2023-02-08T17:08:35;30.35;;;13.93;;
51489;SDS011;57752;53.574;9.736;2023-02-08T17:13:35;29.50;;;13.25;;
51489;SDS011;57752;53.574;9.736;2023-02-08T17:18:35;33.15;;;13.80;;
51489;SDS011;57752;53.574;9.736;2023-02-08T17:23:35;35.22;;;14.07;;
51489;SDS011;57752;53.574;9.736;2023-02-08T17:28:36;32.22;;;14.18;;
51489;SDS011;57752;53.574;9.736;2023-02-08T17:33:38;37.17;;;14.88;;
51489;SDS011;57752;53.574;9.736;2023-02-08T17:38:39;33.42;;;13.68;;
51489;SDS011;57752;53.574;9.736;2023-02-08T17:43:40;32.85;;;14.02;;
51489;SDS011;57752;53.574;9.736;2023-02-08T17:48:40;32.67;;;14.90;;
51489;SDS011;57752;53.574;9.736;2023-02-08T17:53:41;37.60;;;14.60;;
51489;SDS011;57752;53.574;9.736;2023-02-08T17:58:42;36.78;;;15.00;;
51489;SDS011;57752;53.574;9.736;2023-02-08T18:03:43;37.08;;;16.48;;
51489;SDS011;57752;53.574;9.736;2023-02-08T18:08:44;37.40;;;16.35;;
51489;SDS011;57752;53.574;9.736;2023-02-08T18:13:44;38.10;;;16.15;;
51489;SDS011;57752;53.574;9.736;2023-02-08T18:18:45;40.90;;;17.02;;
51489;SDS011;57752;53.574;9.736;2023-02-08T18:23:46;41.45;;;17.83;;
51489;SDS011;57752;53.574;9.736;2023-02-08T18:28:46;39.60;;;17.63;;
51489;SDS011;57752;53.574;9.736;2023-02-08T18:33:47;42.95;;;18.02;;
51489;SDS011;57752;53.574;9.736;2023-02-08T18:38:48;46.83;;;19.52;;
51489;SDS011;57752;53.574;9.736;2023-02-08T18:43:49;41.65;;;17.23;;
51489;SDS011;57752;53.574;9.736;2023-02-08T18:48:50;39.58;;;16.77;;
51489;SDS011;57752;53.574;9.736;2023-02-08T18:53:53;43.78;;;18.48;;
51489;SDS011;57752;53.574;9.736;2023-02-08T18:58:54;42.58;;;17.95;;
51489;SDS011;57752;53.574;9.736;2023-02-08T19:03:54;41.00;;;17.38;;
51489;SDS011;57752;53.574;9.736;2023-02-08T19:08:55;42.35;;;18.52;;
51489;SDS011;57752;53.574;9.736;2023-02-08T19:13:56;43.22;;;18.55;;
51489;SDS011;57752;53.574;9.736;2023-02-08T19:18:56;41.53;;;17.35;;
51489;SDS011;57752;53.574;9.736;2023-02-08T19:23:56;43.20;;;18.23;;
51489;SDS011;57752;53.574;9.736;2023-02-08T19:28:57;41.22;;;18.20;;
51489;SDS011;57752;53.574;9.736;2023-02-08T19:33:58;43.67;;;19.25;;
51489;SDS011;57752;53.574;9.736;2023-02-08T19:39:00;45.03;;;17.48;;
51489;SDS011;57752;53.574;9.736;2023-02-08T19:44:00;38.50;;;16.70;;
51489;SDS011;57752;53.574;9.736;2023-02-08T19:49:02;44.58;;;17.50;;
51489;SDS011;57752;53.574;9.736;2023-02-08T19:54:03;43.13;;;18.63;;
51489;SDS011;57752;53.574;9.736;2023-02-08T20:04:06;44.92;;;19.80;;
51489;SDS011;57752;53.574;9.736;2023-02-08T20:09:06;43.38;;;19.67;;
51489;SDS011;57752;53.574;9.736;2023-02-08T20:14:06;44.05;;;19.27;;
51489;SDS011;57752;53.574;9.736;2023-02-08T20:19:07;42.78;;;19.38;;
51489;SDS011;57752;53.574;9.736;2023-02-08T20:24:10;43.85;;;20.67;;
51489;SDS011;57752;53.574;9.736;2023-02-08T20:29:10;50.22;;;21.02;;
51489;SDS011;57752;53.574;9.736;2023-02-08T20:34:11;45.15;;;19.42;;
51489;SDS011;57752;53.574;9.736;2023-02-08T20:39:13;52.60;;;21.20;;
51489;SDS011;57752;53.574;9.736;2023-02-08T20:44:14;47.88;;;19.88;;
51489;SDS011;57752;53.574;9.736;2023-02-08T20:49:15;51.15;;;22.25;;
51489;SDS011;57752;53.574;9.736;2023-02-08T20:54:21;51.08;;;21.75;;
51489;SDS011;57752;53.574;9.736;2023-02-08T20:59:23;45.03;;;20.65;;
51489;SDS011;57752;53.574;9.736;2023-02-08T21:04:23;53.33;;;23.50;;
51489;SDS011;57752;53.574;9.736;2023-02-08T21:09:23;52.83;;;21.70;;
51489;SDS011;57752;53.574;9.736;2023-02-08T21:14:23;44.45;;;20.67;;
51489;SDS011;57752;53.574;9.736;2023-02-08T21:19:24;56.05;;;23.73;;
51489;SDS011;57752;53.574;9.736;2023-02-08T21:24:25;50.28;;;23.85;;
51489;SDS011;57752;53.574;9.736;2023-02-08T21:29:25;52.58;;;23.40;;
51489;SDS011;57752;53.574;9.736;2023-02-08T21:34:25;56.92;;;23.08;;
51489;SDS011;57752;53.574;9.736;2023-02-08T21:39:25;52.38;;;20.52;;
51489;SDS011;57752;53.574;9.736;2023-02-08T21:44:25;60.72;;;24.52;;
51489;SDS011;57752;53.574;9.736;2023-02-08T21:49:25;52.00;;;22.02;;
51489;SDS011;57752;53.574;9.736;2023-02-08T21:54:45;61.65;;;27.48;;
51489;SDS011;57752;53.574;9.736;2023-02-08T21:59:45;63.15;;;24.13;;
51489;SDS011;57752;53.574;9.736;2023-02-08T22:04:46;60.15;;;26.23;;
51489;SDS011;57752;53.574;9.736;2023-02-08T22:09:47;60.17;;;23.95;;
51489;SDS011;57752;53.574;9.736;2023-02-08T22:14:47;55.05;;;24.55;;
51489;SDS011;57752;53.574;9.736;2023-02-08T22:19:48;68.60;;;24.70;;
51489;SDS011;57752;53.574;9.736;2023-02-08T22:24:48;59.80;;;25.27;;
51489;SDS011;57752;53.574;9.736;2023-02-08T22:29:48;61.00;;;25.90;;
51489;SDS011;57752;53.574;9.736;2023-02-08T22:34:48;66.57;;;27.70;;
51489;SDS011;57752;53.574;9.736;2023-02-08T22:39:48;68.05;;;25.50;;
51489;SDS011;57752;53.574;9.736;2023-02-08T22:44:49;66.43;;;25.80;;
51489;SDS011;57752;53.574;9.736;2023-02-08T22:49:49;62.05;;;27.90;;
51489;SDS011;57752;53.574;9.736;2023-02-08T22:54:49;71.57;;;28.17;;
51489;SDS011;57752;53.574;9.736;2023-02-08T22:59:49;63.67;;;26.73;;
51489;SDS011;57752;53.574;9.736;2023-02-08T23:04:50;76.00;;;28.50;;
51489;SDS011;57752;53.574;9.736;2023-02-08T23:09:50;76.28;;;26.70;;
51489;SDS011;57752;53.574;9.736;2023-02-08T23:14:50;66.65;;;26.38;;
51489;SDS011;57752;53.574;9.736;2023-02-08T23:19:50;69.18;;;27.95;;
51489;SDS011;57752;53.574;9.736;2023-02-08T23:24:52;62.95;;;27.08;;
51489;SDS011;57752;53.574;9.736;2023-02-08T23:29:53;61.65;;;26.20;;
51489;SDS011;57752;53.574;9.736;2023-02-08T23:34:53;67.20;;;25.27;;
51489;SDS011;57752;53.574;9.736;2023-02-08T23:39:53;65.10;;;27.75;;
51489;SDS011;57752;53.574;9.736;2023-02-08T23:44:54;69.25;;;26.52;;
51489;SDS011;57752;53.574;9.736;2023-02-08T23:49:54;70.50;;;26.90;;
51489;SDS011;57752;53.574;9.736;2023-02-08T23:54:54;68.07;;;25.88;;
51489;SDS011;57752;53.574;9.736;2023-02-08T23:59:54;62.50;;;26.45;;
